Time;durP1;ratioP1;P1;durP2;ratioP2;P2;SDS_P1;SDS_P2;PMS_P1;PMS_P2;Temp;Humidity;BMP_temperature;BMP_pressure;BME280_temperature;BME280_humidity;BME280_pressure;Samples;Min_cycle;Max_cycle;Signal;HPM_P1;HPM_P2
2023/12/03 00:00:08;;;;;;;4.75;3.40;;;;;;;19.69;42.41;101828.47;5023840;28;20466;-40
2023/12/03 00:02:34;;;;;;;3.58;3.17;;;;;;;19.71;42.25;101830.97;5037974;28;20115;-39
2023/12/03 00:05:01;;;;;;;3.40;3.10;;;;;;;19.71;42.37;101826.28;5006412;28;20040;-39
2023/12/03 00:07:28;;;;;;;3.80;3.33;;;;;;;19.72;42.62;101829.88;5044920;28;20470;-39
2023/12/03 00:09:55;;;;;;;4.40;3.45;;;;;;;19.71;42.41;101826.28;5042837;28;20033;-39
2023/12/03 00:12:20;;;;;;;3.88;3.47;;;;;;;19.73;42.54;101840.59;5040165;28;20037;-39
2023/12/03 00:14:45;;;;;;;4.43;2.88;;;;;;;19.73;42.54;101837.84;5051874;28;20032;-39
2023/12/03 00:17:11;;;;;;;5.07;2.63;;;;;;;19.73;42.46;101831.53;5033628;28;20021;-39
2023/12/03 00:19:36;;;;;;;4.63;2.90;;;;;;;19.73;42.86;101835.09;5042906;28;20588;-39
2023/12/03 00:22:02;;;;;;;3.60;2.80;;;;;;;19.73;42.73;101837.84;5025663;28;20761;-39
2023/12/03 00:24:27;;;;;;;3.28;2.50;;;;;;;19.73;42.79;101837.84;5042339;28;20031;-39
2023/12/03 00:26:52;;;;;;;3.70;2.50;;;;;;;19.73;42.73;101834.28;5040185;28;20036;-40
2023/12/03 00:29:18;;;;;;;4.47;2.72;;;;;;;19.73;42.61;101831.53;5036578;28;20032;-40
2023/12/03 00:31:43;;;;;;;3.08;2.70;;;;;;;19.75;42.91;101839.50;5037562;28;20407;-40
2023/12/03 00:34:08;;;;;;;2.58;2.38;;;;;;;19.73;42.84;101837.84;5042425;28;20107;-39
2023/12/03 00:36:34;;;;;;;2.30;2.05;;;;;;;19.74;42.66;101833.16;5039960;28;20358;-39
2023/12/03 00:38:59;;;;;;;3.25;2.50;;;;;;;19.75;42.95;101834.00;5042670;28;20091;-39
2023/12/03 00:41:25;;;;;;;2.60;2.40;;;;;;;19.73;42.94;101832.34;5036622;28;20059;-39
2023/12/03 00:43:50;;;;;;;2.80;2.60;;;;;;;19.76;42.86;101838.41;5042475;28;20551;-39
2023/12/03 00:46:19;;;;;;;2.33;2.10;;;;;;;19.78;42.83;101836.22;5035910;28;20122;-39
2023/12/03 00:48:45;;;;;;;2.40;2.20;;;;;;;19.78;42.82;101839.81;5042060;28;20047;-39
2023/12/03 00:51:11;;;;;;;2.30;2.10;;;;;;;19.80;42.82;101839.53;5039299;28;20485;-39
2023/12/03 00:53:37;;;;;;;2.90;2.20;;;;;;;19.80;42.97;101842.28;5034941;28;20020;-39
2023/12/03 00:56:02;;;;;;;3.03;2.20;;;;;;;19.81;42.67;101841.19;5040696;28;20102;-39
2023/12/03 00:58:28;;;;;;;2.63;2.30;;;;;;;19.80;42.50;101837.59;5041346;28;20039;-39
2023/12/03 01:00:53;;;;;;;5.40;2.38;;;;;;;19.80;42.88;101836.78;5040223;28;20035;-40
2023/12/03 01:03:18;;;;;;;2.55;2.35;;;;;;;19.80;42.85;101840.34;5042763;28;20100;-39
2023/12/03 01:05:44;;;;;;;2.97;2.05;;;;;;;19.79;43.00;101838.72;5042180;28;20048;-41
2023/12/03 01:08:09;;;;;;;2.55;2.35;;;;;;;19.78;42.92;101833.47;5034394;28;20028;-39
2023/12/03 01:10:35;;;;;;;2.50;2.30;;;;;;;19.77;42.86;101834.59;5041478;28;20066;-39
2023/12/03 01:13:00;;;;;;;2.30;2.10;;;;;;;19.78;42.90;101841.72;5034968;28;20044;-39
2023/12/03 01:15:26;;;;;;;2.40;2.20;;;;;;;19.78;42.93;101844.47;5039882;28;20023;-39
2023/12/03 01:17:51;;;;;;;2.67;2.42;;;;;;;19.77;42.77;101845.59;5024206;28;20085;-39
2023/12/03 01:20:17;;;;;;;3.60;2.42;;;;;;;19.77;42.90;101838.16;5041210;28;20488;-39
2023/12/03 01:22:42;;;;;;;3.03;2.70;;;;;;;19.77;42.98;101848.34;5043212;28;20083;-39
2023/12/03 01:25:07;;;;;;;3.28;2.90;;;;;;;19.76;42.88;101854.94;5023083;28;20144;-40
2023/12/03 01:27:33;;;;;;;2.95;2.65;;;;;;;19.76;42.76;101846.69;5004042;28;20033;-40
2023/12/03 01:29:58;;;;;;;2.90;2.60;;;;;;;19.77;42.91;101853.84;5021001;28;20112;-39
2023/12/03 01:32:24;;;;;;;2.70;2.50;;;;;;;19.77;42.77;101854.66;5033867;28;20534;-39
2023/12/03 01:34:49;;;;;;;3.38;3.05;;;;;;;19.80;43.10;101861.53;5024516;28;20097;-41
2023/12/03 01:37:14;;;;;;;3.00;2.70;;;;;;;19.81;43.04;101855.78;5031763;28;20105;-38
2023/12/03 01:39:40;;;;;;;3.20;2.90;;;;;;;19.83;43.02;101859.13;5036380;28;20441;-38
2023/12/03 01:42:05;;;;;;;3.30;2.70;;;;;;;19.86;42.97;101866.88;5041904;28;20098;-37
2023/12/03 01:44:30;;;;;;;3.33;3.00;;;;;;;19.90;42.96;101863.56;5039596;28;20078;-37
2023/12/03 01:46:58;;;;;;;3.70;3.08;;;;;;;19.92;42.97;101864.97;5036558;28;20048;-39
2023/12/03 01:49:23;;;;;;;3.70;2.90;;;;;;;19.94;42.84;101867.44;5023754;28;20025;-39
2023/12/03 01:51:48;;;;;;;3.25;2.95;;;;;;;19.95;42.66;101869.09;5040695;28;20401;-40
2023/12/03 01:54:14;;;;;;;4.28;3.38;;;;;;;19.96;42.65;101876.25;5011258;28;20510;-39
2023/12/03 01:56:39;;;;;;;5.47;3.00;;;;;;;19.97;42.86;101877.94;5042043;28;20191;-39
2023/12/03 01:59:05;;;;;;;3.50;3.15;;;;;;;19.96;42.82;101874.34;5041074;28;20059;-37
2023/12/03 02:01:30;;;;;;;3.60;3.08;;;;;;;19.95;42.63;101878.19;5040110;28;20029;-36
2023/12/03 02:03:56;;;;;;;6.95;2.80;;;;;;;19.95;42.80;101883.69;5041070;28;20028;-37
2023/12/03 02:06:21;;;;;;;4.68;3.03;;;;;;;19.93;42.86;101885.88;5040766;28;20547;-37
2023/12/03 02:08:47;;;;;;;4.28;3.08;;;;;;;19.92;42.40;101889.72;5043199;28;20033;-38
2023/12/03 02:11:12;;;;;;;2.90;2.63;;;;;;;19.91;42.75;101882.56;5044057;28;20568;-37
2023/12/03 02:13:38;;;;;;;3.90;3.05;;;;;;;19.91;42.81;101882.56;5045833;28;20604;-37
2023/12/03 02:16:05;;;;;;;4.55;3.05;;;;;;;19.90;42.92;101880.88;5042514;28;20039;-37
2023/12/03 02:18:32;;;;;;;3.05;2.40;;;;;;;19.90;43.08;101880.06;5041016;28;20111;-37
2023/12/03 02:20:57;;;;;;;4.88;2.65;;;;;;;19.89;42.96;101873.75;5037061;28;20514;-39
2023/12/03 02:23:27;;;;;;;3.83;3.20;;;;;;;19.91;43.02;101870.72;5038600;28;20013;-36
2023/12/03 02:25:52;;;;;;;2.85;2.63;;;;;;;19.92;42.80;101875.97;5028321;28;20036;-37
2023/12/03 02:28:18;;;;;;;3.20;2.90;;;;;;;19.94;42.89;101883.94;5037327;28;20067;-36
2023/12/03 02:30:43;;;;;;;3.08;2.88;;;;;;;19.97;43.01;101881.50;5039918;28;20041;-37
2023/12/03 02:33:09;;;;;;;3.10;2.80;;;;;;;19.99;42.63;101884.00;5040338;28;20099;-37
2023/12/03 02:35:34;;;;;;;3.70;2.95;;;;;;;19.98;42.66;101874.09;5047592;28;20028;-37
2023/12/03 02:37:59;;;;;;;3.10;2.80;;;;;;;19.95;42.82;101880.94;5024893;28;20040;-39
2023/12/03 02:40:25;;;;;;;2.92;2.70;;;;;;;19.94;42.69;101878.44;5043436;28;20060;-39
2023/12/03 02:42:50;;;;;;;3.55;2.80;;;;;;;19.92;42.67;101881.47;5052157;28;20036;-39
2023/12/03 02:45:17;;;;;;;3.65;3.15;;;;;;;19.90;42.71;101880.88;5044720;28;20025;-39
2023/12/03 02:47:42;;;;;;;3.30;2.97;;;;;;;19.88;42.84;101874.84;5046559;28;20436;-39
2023/12/03 02:50:08;;;;;;;3.75;3.05;;;;;;;19.86;42.84;101874.28;5045175;28;20571;-39
2023/12/03 02:52:33;;;;;;;2.95;2.60;;;;;;;19.85;42.75;101878.97;5040290;28;20136;-38
2023/12/03 02:54:59;;;;;;;3.00;2.70;;;;;;;19.82;42.92;101876.69;5038113;28;20398;-39
2023/12/03 02:57:24;;;;;;;3.30;2.80;;;;;;;19.80;42.57;101875.28;5040806;28;20093;-37
2023/12/03 02:59:50;;;;;;;4.07;2.70;;;;;;;19.75;42.76;101875.28;5037458;28;20404;-37
2023/12/03 03:02:15;;;;;;;3.60;2.97;;;;;;;19.71;43.10;101874.97;5043060;28;20052;-37
2023/12/03 03:04:40;;;;;;;2.95;2.65;;;;;;;19.65;42.82;101871.34;5042660;28;20632;-37
2023/12/03 03:07:06;;;;;;;4.13;2.72;;;;;;;19.60;42.88;101863.06;5042614;28;20029;-36
2023/12/03 03:09:31;;;;;;;4.20;2.65;;;;;;;19.56;42.84;101876.50;5024561;28;20032;-36
2023/12/03 03:11:57;;;;;;;3.25;2.90;;;;;;;19.53;42.92;101876.19;5042778;28;20123;-36
2023/12/03 03:14:24;;;;;;;3.33;2.90;;;;;;;19.50;42.92;101873.97;5046181;28;20082;-39
2023/12/03 03:16:49;;;;;;;2.85;2.63;;;;;;;19.46;42.87;101878.31;5044109;28;20125;-39
2023/12/03 03:19:14;;;;;;;3.70;2.78;;;;;;;19.43;43.09;101865.94;5046132;28;20103;-39
2023/12/03 03:21:40;;;;;;;3.78;2.97;;;;;;;19.38;43.12;101869.47;5043755;28;20497;-39
2023/12/03 03:24:06;;;;;;;3.35;3.05;;;;;;;19.34;42.84;101868.34;5037084;28;20423;-38
2023/12/03 03:26:32;;;;;;;3.53;3.15;;;;;;;19.31;43.02;101865.28;5025869;28;20538;-39
2023/12/03 03:28:57;;;;;;;3.10;2.80;;;;;;;19.29;43.15;101868.28;5043043;28;20025;-38
2023/12/03 03:31:22;;;;;;;3.38;2.70;;;;;;;19.26;43.09;101876.22;5040796;28;20049;-36
2023/12/03 03:33:49;;;;;;;3.15;2.83;;;;;;;19.23;43.11;101872.91;5020212;28;20045;-36
2023/12/03 03:36:14;;;;;;;4.47;2.72;;;;;;;19.19;43.22;101871.78;5042382;28;20052;-36
2023/12/03 03:38:41;;;;;;;3.95;3.10;;;;;;;19.18;43.26;101874.78;5038662;28;20068;-37
2023/12/03 03:41:07;;;;;;;3.70;3.05;;;;;;;19.13;42.98;101874.72;5044864;28;20032;-37
2023/12/03 03:43:32;;;;;;;3.97;3.00;;;;;;;19.11;43.11;101877.72;5040460;28;20040;-37
2023/12/03 03:45:57;;;;;;;3.20;2.90;;;;;;;19.07;43.09;101877.41;5047507;28;20420;-36
2023/12/03 03:48:23;;;;;;;4.55;3.13;;;;;;;19.05;42.94;101876.03;5042078;28;20179;-37
2023/12/03 03:50:48;;;;;;;3.47;3.17;;;;;;;19.00;43.15;101874.06;5044615;28;20112;-38
2023/12/03 03:53:14;;;;;;;4.20;2.97;;;;;;;18.98;43.20;101879.00;5041595;28;20067;-36
2023/12/03 03:55:39;;;;;;;5.43;3.03;;;;;;;18.95;43.10;101874.00;5041610;28;20040;-36
2023/12/03 03:58:05;;;;;;;3.70;2.92;;;;;;;18.92;43.23;101880.84;5053814;28;20051;-36
2023/12/03 04:00:30;;;;;;;3.25;2.80;;;;;;;18.91;43.34;101889.34;5042603;28;20024;-36
2023/12/03 04:02:56;;;;;;;3.15;2.80;;;;;;;18.88;43.38;101896.16;5044796;28;20048;-36
2023/12/03 04:05:22;;;;;;;3.85;3.17;;;;;;;18.85;43.30;101893.09;5041205;28;20708;-37
2023/12/03 04:07:47;;;;;;;3.50;3.00;;;;;;;18.82;43.27;101893.59;5037281;28;20036;-37
2023/12/03 04:10:13;;;;;;;3.33;3.03;;;;;;;18.78;43.45;101887.78;5044853;28;20033;-36
2023/12/03 04:12:38;;;;;;;3.42;3.13;;;;;;;18.75;43.56;101886.38;5040327;28;20414;-36
2023/12/03 04:15:05;;;;;;;3.58;3.10;;;;;;;18.72;43.46;101891.56;5044370;28;20040;-36
2023/12/03 04:17:31;;;;;;;3.53;2.90;;;;;;;18.67;43.30;101895.06;5043455;28;20345;-36
2023/12/03 04:19:56;;;;;;;3.53;3.22;;;;;;;18.64;43.57;101895.59;5044455;28;20464;-36
2023/12/03 04:22:23;;;;;;;4.50;3.40;;;;;;;18.62;43.61;101895.00;5043950;28;20040;-37
2023/12/03 04:24:48;;;;;;;4.30;3.17;;;;;;;18.57;43.55;101890.28;5025920;28;20029;-37
2023/12/03 04:27:14;;;;;;;3.88;3.28;;;;;;;18.55;43.55;101897.13;5023491;28;20074;-37
2023/12/03 04:29:39;;;;;;;4.00;3.15;;;;;;;18.53;43.49;101896.56;5041449;28;20032;-39
2023/12/03 04:32:05;;;;;;;4.03;3.30;;;;;;;18.50;43.42;101897.88;5036790;28;20124;-39
2023/12/03 04:34:31;;;;;;;4.22;3.42;;;;;;;18.48;43.40;101886.34;5013034;28;20424;-39
2023/12/03 04:36:56;;;;;;;4.28;3.58;;;;;;;18.47;43.49;101887.41;5042285;28;20043;-39
2023/12/03 04:39:21;;;;;;;5.88;3.63;;;;;;;18.47;43.50;101887.41;5038368;28;20040;-39
2023/12/03 04:41:47;;;;;;;5.15;3.58;;;;;;;18.46;43.46;101888.50;5044058;28;20025;-40
2023/12/03 04:44:12;;;;;;;4.20;3.65;;;;;;;18.44;43.30;101885.16;5043262;28;20131;-39
2023/12/03 04:46:41;;;;;;;3.97;3.50;;;;;;;18.42;43.47;101896.41;5043722;28;20033;-39
2023/12/03 04:49:06;;;;;;;4.20;3.65;;;;;;;18.40;43.34;101887.59;5036697;28;20086;-38
2023/12/03 04:51:32;;;;;;;4.47;3.72;;;;;;;18.40;43.40;101886.78;5053745;28;20029;-39
2023/12/03 04:53:58;;;;;;;4.57;3.80;;;;;;;18.39;43.42;101885.94;5043992;28;20020;-39
2023/12/03 04:56:23;;;;;;;5.95;3.92;;;;;;;18.37;43.36;101887.25;5043398;28;20539;-36
2023/12/03 04:58:48;;;;;;;5.13;4.18;;;;;;;18.36;43.40;101896.59;5041432;28;20021;-36
2023/12/03 05:01:16;;;;;;;4.90;3.88;;;;;;;18.35;43.38;101890.28;5043546;28;20096;-35
2023/12/03 05:03:42;;;;;;;5.72;3.88;;;;;;;18.33;43.44;101892.47;5024644;28;20485;-36
2023/12/03 05:06:07;;;;;;;5.10;3.95;;;;;;;18.31;43.37;101900.09;5049492;28;20020;-35
2023/12/03 05:08:33;;;;;;;4.43;3.97;;;;;;;18.31;43.22;101894.63;5043235;28;20063;-36
2023/12/03 05:11:02;;;;;;;4.90;3.85;;;;;;;18.30;43.37;101892.13;5038113;28;20024;-36
2023/12/03 05:13:27;;;;;;;4.10;3.70;;;;;;;18.27;43.37;101893.44;5037750;28;20087;-36
2023/12/03 05:15:53;;;;;;;4.65;3.90;;;;;;;18.25;43.47;101888.22;5045753;28;20049;-36
2023/12/03 05:18:18;;;;;;;4.43;4.03;;;;;;;18.22;43.36;101896.97;5037757;28;20493;-36
2023/12/03 05:20:44;;;;;;;5.32;4.20;;;;;;;18.22;43.24;101887.88;5043153;28;20060;-36
2023/12/03 05:23:10;;;;;;;4.85;3.90;;;;;;;18.21;43.34;101886.22;5041901;28;20023;-37
2023/12/03 05:25:35;;;;;;;4.60;3.78;;;;;;;18.19;43.40;101888.41;5042464;28;20079;-36
2023/12/03 05:28:01;;;;;;;5.15;3.85;;;;;;;18.16;43.42;101880.66;5037708;28;20029;-37
2023/12/03 05:30:27;;;;;;;6.38;4.55;;;;;;;18.15;43.41;101885.34;5021956;28;20079;-37
2023/12/03 05:32:53;;;;;;;5.43;4.15;;;;;;;18.14;43.42;101891.09;5038882;28;20415;-37
2023/12/03 05:35:18;;;;;;;4.35;3.80;;;;;;;18.12;43.41;101894.06;5008916;28;20036;-39
2023/12/03 05:37:43;;;;;;;6.72;3.88;;;;;;;18.09;43.42;101908.31;5038389;28;20450;-40
2023/12/03 05:40:09;;;;;;;5.18;4.32;;;;;;;18.08;43.37;101896.47;5043386;28;20028;-39
2023/12/03 05:42:35;;;;;;;6.03;4.32;;;;;;;18.06;43.49;101901.41;5046173;28;20021;-40
2023/12/03 05:45:00;;;;;;;5.40;4.07;;;;;;;18.05;43.61;101899.75;5035662;28;20036;-39
2023/12/03 05:47:26;;;;;;;7.40;4.85;;;;;;;18.05;43.47;101904.38;5024700;28;20028;-40
2023/12/03 05:49:52;;;;;;;6.25;4.93;;;;;;;18.01;43.54;101897.75;5046455;28;20036;-39
2023/12/03 05:52:17;;;;;;;6.35;4.32;;;;;;;18.00;43.44;101901.56;5028453;28;20033;-38
2023/12/03 05:54:42;;;;;;;6.03;4.10;;;;;;;17.99;43.67;101908.97;5037919;28;20063;-38
2023/12/03 05:57:08;;;;;;;5.13;4.05;;;;;;;17.97;43.65;101908.38;5041034;28;20492;-39
2023/12/03 05:59:33;;;;;;;6.75;4.85;;;;;;;17.97;43.60;101911.13;5039345;28;20037;-43
2023/12/03 06:01:59;;;;;;;5.50;4.20;;;;;;;17.97;43.50;101911.13;5045895;28;20021;-39
2023/12/03 06:04:24;;;;;;;6.82;4.68;;;;;;;18.00;43.66;101909.78;5043202;28;20100;-38
2023/12/03 06:06:49;;;;;;;6.25;4.65;;;;;;;18.02;43.66;101905.72;5046557;28;20389;-39
2023/12/03 06:09:15;;;;;;;5.88;4.55;;;;;;;18.06;43.53;101904.16;5027778;28;20033;-38
2023/12/03 06:11:40;;;;;;;6.55;4.97;;;;;;;18.14;43.61;101910.28;5042016;28;20527;-38
2023/12/03 06:14:06;;;;;;;6.03;4.57;;;;;;;18.19;43.44;101905.69;5038795;28;20041;-39
2023/12/03 06:16:31;;;;;;;5.80;4.40;;;;;;;18.26;43.57;101906.34;5034994;28;20551;-39
2023/12/03 06:18:57;;;;;;;5.15;4.47;;;;;;;18.34;43.58;101916.06;5040224;28;20029;-39
2023/12/03 06:21:23;;;;;;;5.95;4.60;;;;;;;18.43;43.42;101924.69;5011844;28;20026;-39
2023/12/03 06:23:49;;;;;;;6.20;4.57;;;;;;;18.52;43.46;101925.09;5038643;28;20445;-39
2023/12/03 06:26:14;;;;;;;6.15;4.78;;;;;;;18.59;43.19;101918.31;5045051;28;20024;-39
2023/12/03 06:28:39;;;;;;;8.05;4.50;;;;;;;18.69;43.18;101922.28;5040852;28;20040;-39
2023/12/03 06:31:06;;;;;;;6.57;4.45;;;;;;;18.81;43.26;101924.88;5039496;28;20037;-39
2023/12/03 06:33:31;;;;;;;5.38;4.60;;;;;;;18.88;43.09;101911.78;5042251;28;20028;-39
2023/12/03 06:35:56;;;;;;;5.70;4.53;;;;;;;18.98;43.03;101911.09;5029142;28;20032;-38
2023/12/03 06:38:22;;;;;;;5.93;4.70;;;;;;;19.04;42.92;101910.06;5043130;28;20033;-38
2023/12/03 06:40:47;;;;;;;6.10;4.60;;;;;;;19.08;42.80;101898.31;5044920;28;20052;-40
2023/12/03 06:43:13;;;;;;;5.63;4.90;;;;;;;19.11;42.66;101910.72;5038300;28;20051;-38
2023/12/03 06:45:38;;;;;;;6.93;4.78;;;;;;;19.13;42.54;101897.56;5041735;28;20025;-40
2023/12/03 06:48:04;;;;;;;5.53;4.55;;;;;;;19.13;42.66;101897.56;5020805;28;20025;-38
2023/12/03 06:50:29;;;;;;;7.32;5.30;;;;;;;19.10;42.59;101887.06;5041107;28;20032;-39
2023/12/03 06:52:55;;;;;;;5.35;4.60;;;;;;;19.06;42.46;101899.66;5043959;28;20033;-39
2023/12/03 06:55:20;;;;;;;7.25;4.93;;;;;;;19.02;42.42;101902.09;5043783;28;20037;-39
2023/12/03 06:57:45;;;;;;;5.43;4.47;;;;;;;19.00;42.66;101900.72;5023282;28;20030;-38
2023/12/03 07:00:11;;;;;;;5.57;4.75;;;;;;;18.97;42.44;101904.81;5038228;28;20112;-40
2023/12/03 07:02:37;;;;;;;6.38;4.80;;;;;;;18.94;42.48;101904.47;5043157;28;20075;-39
2023/12/03 07:05:03;;;;;;;7.30;5.10;;;;;;;18.91;42.61;101909.41;5039777;28;20457;-39
2023/12/03 07:07:29;;;;;;;8.40;5.20;;;;;;;18.89;42.51;101906.03;5040439;28;20029;-38
2023/12/03 07:09:54;;;;;;;7.47;5.40;;;;;;;18.88;42.79;101911.78;5037986;28;20029;-39
2023/12/03 07:12:20;;;;;;;8.43;5.30;;;;;;;18.84;42.65;101911.47;5034056;28;20079;-39
2023/12/03 07:14:45;;;;;;;6.95;5.25;;;;;;;18.79;42.65;101914.16;5041834;28;20036;-39
2023/12/03 07:17:10;;;;;;;7.40;5.25;;;;;;;18.75;42.69;101911.09;5026402;28;20462;-39
2023/12/03 07:19:36;;;;;;;8.02;5.97;;;;;;;18.70;42.75;101919.28;5040347;28;20477;-39
2023/12/03 07:22:01;;;;;;;7.75;5.40;;;;;;;18.67;42.62;101918.97;5044255;28;20023;-39
2023/12/03 07:24:26;;;;;;;6.78;5.43;;;;;;;18.62;42.56;101921.66;5044405;28;20102;-38
2023/12/03 07:26:52;;;;;;;7.32;5.93;;;;;;;18.59;42.73;101929.31;5044054;28;20027;-38
2023/12/03 07:29:18;;;;;;;8.02;5.70;;;;;;;18.54;42.72;101915.50;5040643;28;20033;-39
2023/12/03 07:31:43;;;;;;;7.68;5.38;;;;;;;18.53;42.65;101918.53;5038992;28;20497;-39
2023/12/03 07:34:09;;;;;;;10.32;6.13;;;;;;;18.50;42.98;101914.34;5038280;28;20112;-39
2023/12/03 07:36:34;;;;;;;7.40;5.93;;;;;;;18.48;42.66;101918.44;5023589;28;20461;-39
2023/12/03 07:38:59;;;;;;;7.82;6.20;;;;;;;18.43;42.68;101917.28;5019383;28;20086;-39
2023/12/03 07:41:25;;;;;;;8.93;6.18;;;;;;;18.39;42.91;101916.16;5032374;28;20025;-39
2023/12/03 07:43:51;;;;;;;8.18;6.10;;;;;;;18.38;42.88;101922.72;5044070;28;20107;-39
2023/12/03 07:46:17;;;;;;;8.88;6.50;;;;;;;18.36;42.94;101929.53;5044336;28;20082;-39
2023/12/03 07:48:42;;;;;;;7.78;5.88;;;;;;;18.33;42.76;101919.91;5044350;28;20124;-39
2023/12/03 07:51:11;;;;;;;8.95;6.18;;;;;;;18.33;42.96;101935.53;5044508;28;20128;-39
2023/12/03 07:53:36;;;;;;;7.40;5.75;;;;;;;18.31;42.77;101934.94;5042960;28;20032;-38
2023/12/03 07:56:02;;;;;;;9.35;6.00;;;;;;;18.30;42.63;101934.13;5044597;28;20389;-39
2023/12/03 07:58:27;;;;;;;9.10;6.30;;;;;;;18.30;42.98;101934.13;5016302;28;20033;-39
2023/12/03 08:00:53;;;;;;;8.90;6.75;;;;;;;18.30;42.96;101930.56;5043734;28;20501;-39
2023/12/03 08:03:18;;;;;;;8.88;6.20;;;;;;;18.30;42.82;101936.03;5043711;28;20101;-39
2023/12/03 08:05:44;;;;;;;9.80;6.72;;;;;;;18.32;42.97;101937.44;5044395;28;20485;-39
2023/12/03 08:08:09;;;;;;;9.32;6.70;;;;;;;18.33;42.77;101938.25;5025781;28;20107;-38
2023/12/03 08:10:35;;;;;;;8.98;7.00;;;;;;;18.35;42.69;101938.84;5039939;28;20139;-39
2023/12/03 08:13:00;;;;;;;9.60;6.68;;;;;;;18.38;42.88;101947.41;5043030;28;20178;-39
2023/12/03 08:15:25;;;;;;;9.80;6.40;;;;;;;18.41;42.68;101944.16;5042391;28;20033;-39
2023/12/03 08:17:51;;;;;;;10.32;6.93;;;;;;;18.44;42.94;101946.41;5037881;28;20513;-36
2023/12/03 08:20:17;;;;;;;9.68;6.40;;;;;;;18.49;42.67;101945.66;5040755;28;20048;-36
2023/12/03 08:22:42;;;;;;;9.48;6.90;;;;;;;18.54;42.97;101942.13;5042158;28;20363;-37
2023/12/03 08:25:08;;;;;;;9.35;6.03;;;;;;;18.60;42.49;101939.19;5035620;28;20402;-36
2023/12/03 08:27:33;;;;;;;9.13;6.50;;;;;;;18.64;42.72;101939.53;5037689;28;20025;-36
2023/12/03 08:29:59;;;;;;;9.43;6.53;;;;;;;18.73;42.55;101939.91;5041988;28;20045;-36
2023/12/03 08:32:24;;;;;;;8.43;6.20;;;;;;;18.77;42.54;101935.56;5042968;28;20063;-37
2023/12/03 08:34:50;;;;;;;9.18;6.30;;;;;;;18.80;42.56;101937.81;5034215;28;20059;-37
2023/12/03 08:37:16;;;;;;;8.90;6.43;;;;;;;18.82;42.64;101938.38;5024083;28;20040;-36
2023/12/03 08:39:41;;;;;;;9.63;6.93;;;;;;;18.82;42.52;101935.63;5040563;28;20033;-37
2023/12/03 08:42:07;;;;;;;8.73;6.20;;;;;;;18.82;42.58;101932.03;5043929;28;20028;-36
2023/12/03 08:44:33;;;;;;;9.68;6.65;;;;;;;18.80;42.35;101935.06;5042002;28;20036;-36
2023/12/03 08:46:59;;;;;;;8.05;6.40;;;;;;;18.79;42.54;101927.09;5043981;28;20036;-36
2023/12/03 08:49:24;;;;;;;10.75;6.47;;;;;;;18.76;42.29;101934.75;5038191;28;20025;-39
2023/12/03 08:51:50;;;;;;;8.60;6.43;;;;;;;18.74;42.47;101936.09;5024911;28;20533;-39
2023/12/03 08:54:16;;;;;;;9.68;6.47;;;;;;;18.72;42.40;101927.25;5041926;28;20024;-39
2023/12/03 08:56:43;;;;;;;7.25;6.00;;;;;;;18.69;42.43;101934.09;5036508;28;20044;-39
2023/12/03 08:59:08;;;;;;;9.13;6.85;;;;;;;18.68;42.33;101931.59;5042474;28;20047;-37
2023/12/03 09:01:33;;;;;;;8.18;6.22;;;;;;;18.66;42.55;101933.78;5024544;28;20056;-36
2023/12/03 09:03:59;;;;;;;9.35;6.15;;;;;;;18.63;42.49;101928.81;5035308;28;20477;-36
2023/12/03 09:06:24;;;;;;;12.05;6.50;;;;;;;18.61;42.61;101926.28;5041971;28;20029;-37
2023/12/03 09:08:50;;;;;;;8.05;6.07;;;;;;;18.59;42.63;101926.56;5029674;28;20493;-36
2023/12/03 09:11:15;;;;;;;8.40;6.40;;;;;;;18.56;42.45;101913.31;5043085;28;20064;-36
2023/12/03 09:13:41;;;;;;;12.55;6.72;;;;;;;18.56;42.36;101915.25;5037455;28;20104;-39
2023/12/03 09:16:06;;;;;;;8.45;6.43;;;;;;;18.54;42.54;101912.75;5044788;28;20052;-38
2023/12/03 09:18:38;;;;;;;8.82;6.32;;;;;;;18.55;42.48;101916.34;5044840;28;20029;-38
2023/12/03 09:21:05;;;;;;;7.60;6.53;;;;;;;18.54;42.41;101911.91;5046566;28;20028;-38
2023/12/03 09:23:30;;;;;;;9.00;6.60;;;;;;;18.54;42.39;101914.66;5046980;28;20020;-39
2023/12/03 09:25:56;;;;;;;8.48;6.32;;;;;;;18.53;42.30;101905.63;5046952;28;20475;-36
2023/12/03 09:28:21;;;;;;;7.68;6.15;;;;;;;18.52;42.46;101900.38;5044190;28;20048;-36
2023/12/03 09:30:46;;;;;;;8.65;6.57;;;;;;;18.49;42.34;101904.47;5046785;28;20052;-36
2023/12/03 09:33:12;;;;;;;9.05;6.60;;;;;;;18.47;42.18;101912.13;5046594;28;20083;-36
2023/12/03 09:35:37;;;;;;;9.82;7.20;;;;;;;18.45;42.12;101911.53;5039154;28;20170;-36
2023/12/03 09:38:03;;;;;;;7.45;6.32;;;;;;;18.44;42.05;101913.47;5045781;28;20032;-36
2023/12/03 09:40:28;;;;;;;8.35;6.47;;;;;;;18.42;42.06;101918.38;5028441;28;20036;-37
2023/12/03 09:42:56;;;;;;;8.55;6.32;;;;;;;18.41;41.98;101916.69;5046343;28;20027;-37
2023/12/03 09:45:26;;;;;;;9.27;6.40;;;;;;;18.41;42.20;101919.44;5049007;28;20564;-37
2023/12/03 09:47:57;;;;;;;9.82;6.65;;;;;;;18.43;41.97;101921.97;5029178;28;20025;-37
2023/12/03 09:50:22;;;;;;;9.50;6.25;;;;;;;18.42;42.07;101923.84;5031234;28;20049;-36
2023/12/03 09:52:52;;;;;;;7.95;6.60;;;;;;;18.42;41.93;101918.38;5044279;28;20029;-36
2023/12/03 09:55:19;;;;;;;11.07;6.40;;;;;;;18.42;41.88;101923.84;5041027;28;20036;-37
2023/12/03 09:57:47;;;;;;;9.73;6.65;;;;;;;18.43;42.03;101921.97;5045557;28;20400;-37
2023/12/03 10:00:13;;;;;;;8.18;6.38;;;;;;;18.43;42.01;101917.28;5026781;28;20037;-36
2023/12/03 10:02:38;;;;;;;8.57;6.45;;;;;;;18.41;41.78;101908.47;5045685;28;20021;-38
2023/12/03 10:05:04;;;;;;;8.55;6.28;;;;;;;18.41;41.95;101915.88;5045607;28;20032;-40
2023/12/03 10:07:30;;;;;;;8.43;6.60;;;;;;;18.41;41.94;101913.13;5044019;28;20482;-36
2023/12/03 10:09:59;;;;;;;8.38;6.18;;;;;;;18.40;41.80;101912.28;5037806;28;20059;-36
2023/12/03 10:12:45;;;;;;;7.20;5.72;;;;;;;18.41;41.78;101913.97;5044980;28;20021;-37
2023/12/03 10:15:11;;;;;;;7.97;5.93;;;;;;;18.43;41.88;101910.97;5023980;28;20447;-39
2023/12/03 10:17:40;;;;;;;7.45;5.90;;;;;;;18.44;41.79;101907.97;5034740;28;20029;-39
2023/12/03 10:20:26;;;;;;;7.32;5.88;;;;;;;18.46;41.78;101917.88;5041205;28;20430;-39
2023/12/03 10:22:54;;;;;;;7.90;5.93;;;;;;;18.47;41.79;101903.03;5030189;28;20032;-39
2023/12/03 10:25:25;;;;;;;7.55;5.75;;;;;;;18.47;41.82;101909.38;5045176;28;20070;-39
2023/12/03 10:27:55;;;;;;;8.57;6.15;;;;;;;18.48;41.70;101905.56;5042468;28;20063;-39
2023/12/03 10:30:20;;;;;;;14.05;6.30;;;;;;;18.51;41.80;101893.22;5035877;28;20095;-41
2023/12/03 10:32:46;;;;;;;21.83;6.05;;;;;;;18.57;42.42;101894.94;5024746;28;20482;-43
2023/12/03 10:35:11;;;;;;;38.45;7.22;;;;;;;18.64;42.53;101881.88;5039272;28;20086;-41
2023/12/03 10:37:40;;;;;;;22.13;6.43;;;;;;;18.76;42.31;101885.31;5046524;28;20029;-41
2023/12/03 10:40:06;;;;;;;22.15;5.65;;;;;;;18.84;42.41;101881.25;5020976;28;20096;-40
2023/12/03 10:42:41;;;;;;;23.95;5.85;;;;;;;18.92;42.61;101886.34;5048203;28;20025;-40
2023/12/03 10:45:08;;;;;;;12.05;5.55;;;;;;;18.98;42.49;101881.75;5046916;28;20365;-37
2023/12/03 10:47:34;;;;;;;13.95;5.35;;;;;;;19.04;42.54;101880.69;5045489;28;20566;-36
2023/12/03 10:50:00;;;;;;;12.40;5.82;;;;;;;19.08;42.42;101870.03;5048369;28;20032;-36
2023/12/03 10:52:31;;;;;;;15.88;6.13;;;;;;;19.10;42.38;101872.50;5048452;28;20489;-40
2023/12/03 10:54:56;;;;;;;7.78;5.13;;;;;;;19.13;42.30;101869.22;5028344;28;20028;-40
2023/12/03 10:57:23;;;;;;;7.65;5.07;;;;;;;19.14;42.26;101869.00;5047853;28;20428;-37
2023/12/03 10:59:50;;;;;;;6.95;5.28;;;;;;;19.15;42.05;101867.88;5050007;28;20027;-42
2023/12/03 11:02:17;;;;;;;8.18;5.50;;;;;;;19.16;42.08;101871.47;5030295;28;20051;-40
2023/12/03 11:04:48;;;;;;;7.72;5.38;;;;;;;19.16;41.84;101850.31;5045411;28;20041;-41
2023/12/03 11:07:15;;;;;;;9.15;5.90;;;;;;;19.18;41.87;101855.56;5030153;28;20385;-40
2023/12/03 11:09:41;;;;;;;6.80;5.40;;;;;;;19.17;41.58;101862.94;5028865;28;20029;-41
2023/12/03 11:12:07;;;;;;;6.97;5.72;;;;;;;19.18;41.52;101864.63;5047253;28;20229;-43
2023/12/03 11:14:33;;;;;;;7.45;6.00;;;;;;;19.18;41.22;101856.38;5055287;28;20090;-41
2023/12/03 11:17:03;;;;;;;6.53;5.80;;;;;;;19.19;41.13;101848.94;5022042;28;20416;-40